createdAt,value
2019-01-18T00:01:27.260Z,81.40
2019-01-18T00:03:56.513Z,81.84
2019-01-18T00:06:25.793Z,82.13
2019-01-18T00:08:55.516Z,81.59
2019-01-18T00:11:25.034Z,81.83
2019-01-18T00:13:54.315Z,81.53
2019-01-18T00:16:25.309Z,79.63
2019-01-18T00:18:54.553Z,79.61
2019-01-18T00:21:23.967Z,79.70
2019-01-18T00:23:53.294Z,79.74
2019-01-18T00:26:22.563Z,80.17
2019-01-18T00:28:51.910Z,80.16
2019-01-18T00:31:21.238Z,80.52
2019-01-18T00:33:51.714Z,81.63
2019-01-18T00:36:20.921Z,82.65
2019-01-18T00:38:50.187Z,83.84
2019-01-18T00:41:20.083Z,85.14
2019-01-18T00:43:50.538Z,85.46
2019-01-18T00:46:19.839Z,85.74
2019-01-18T00:48:49.107Z,85.71
2019-01-18T00:51:18.347Z,85.62
2019-01-18T00:53:47.628Z,86.62
2019-01-18T00:56:16.901Z,86.86
2019-01-18T00:58:46.160Z,86.57
2019-01-18T01:01:15.519Z,87.03
2019-01-18T01:03:44.796Z,86.44
2019-01-18T01:06:14.832Z,86.06
2019-01-18T01:08:46.270Z,85.47
2019-01-18T01:11:15.615Z,84.74
2019-01-18T01:13:45.223Z,84.38
2019-01-18T01:16:14.453Z,83.86
2019-01-18T01:18:43.727Z,82.84
2019-01-18T01:21:12.955Z,82.24
2019-01-18T01:23:44.611Z,81.94
2019-01-18T01:26:15.450Z,81.69
2019-01-18T01:28:44.732Z,82.25
2019-01-18T01:31:14.103Z,82.73
2019-01-18T01:33:43.421Z,83.11
2019-01-18T01:36:12.650Z,83.95
2019-01-18T01:38:41.916Z,83.41
2019-01-18T01:41:12.670Z,83.73
2019-01-18T01:43:41.946Z,83.45
2019-01-18T01:46:11.218Z,83.60
2019-01-18T01:48:40.637Z,84.58
2019-01-18T01:51:10.011Z,85.86
2019-01-18T01:53:39.382Z,86.31
2019-01-18T01:56:08.623Z,87.05
2019-01-18T01:58:38.786Z,87.73
2019-01-18T02:01:08.059Z,87.92
2019-01-18T02:03:37.520Z,88.44
2019-01-18T02:06:06.992Z,87.92
2019-01-18T02:08:36.293Z,87.64
2019-01-18T02:11:05.767Z,88.02
2019-01-18T02:13:35.111Z,87.05
2019-01-18T02:16:04.566Z,86.83
2019-01-18T02:18:33.943Z,86.65
2019-01-18T02:21:03.217Z,86.79
2019-01-18T02:23:32.473Z,86.88
2019-01-18T02:26:01.851Z,86.60
2019-01-18T02:28:31.115Z,85.83
2019-01-18T02:31:00.353Z,86.10
2019-01-18T02:33:29.594Z,86.26
2019-01-18T02:35:58.882Z,86.71
2019-01-18T02:38:28.124Z,86.88
2019-01-18T02:40:57.685Z,87.09
2019-01-18T02:43:27.223Z,87.55
2019-01-18T02:45:56.538Z,88.56
2019-01-18T02:48:25.819Z,88.78
2019-01-18T02:50:55.150Z,89.25
2019-01-18T02:53:24.398Z,89.42
2019-01-18T02:55:53.680Z,89.13
2019-01-18T02:58:23.405Z,88.91
2019-01-18T03:00:52.719Z,88.72
2019-01-18T03:03:21.962Z,88.22
2019-01-18T03:05:51.265Z,87.75
2019-01-18T03:08:20.510Z,86.97
2019-01-18T03:10:50.052Z,86.08
2019-01-18T03:13:19.273Z,85.96
2019-01-18T03:15:48.512Z,85.98
2019-01-18T03:18:17.723Z,85.44
2019-01-18T03:20:47.061Z,84.34
2019-01-18T03:23:16.647Z,83.55
2019-01-18T03:25:45.888Z,83.28
2019-01-18T03:28:15.168Z,82.07
2019-01-18T03:30:44.406Z,82.15
2019-01-18T03:33:13.655Z,82.14
2019-01-18T03:35:42.884Z,81.82
2019-01-18T03:38:12.098Z,81.96
2019-01-18T03:40:41.373Z,81.46
2019-01-18T03:43:10.616Z,82.08
2019-01-18T03:45:39.893Z,81.84
2019-01-18T03:48:09.141Z,82.17
2019-01-18T03:50:38.376Z,82.44
2019-01-18T03:53:07.596Z,82.88
2019-01-18T03:55:36.827Z,82.86
2019-01-18T03:58:06.247Z,82.50
2019-01-18T04:00:35.498Z,82.24
2019-01-18T04:03:05.135Z,82.08
2019-01-18T04:05:34.371Z,82.41
2019-01-18T04:08:03.612Z,81.88
2019-01-18T04:10:32.824Z,81.23
2019-01-18T04:13:05.038Z,81.35
2019-01-18T04:15:34.436Z,81.11
2019-01-18T04:18:03.685Z,80.88
2019-01-18T04:20:32.899Z,80.87
2019-01-18T04:23:02.134Z,79.45
2019-01-18T04:25:32.497Z,79.68
2019-01-18T04:28:01.740Z,79.33
2019-01-18T04:30:33.612Z,79.74
2019-01-18T04:33:01.934Z,80.45
2019-01-18T04:35:31.156Z,80.51
2019-01-18T04:38:00.394Z,81.56
2019-01-18T04:40:29.676Z,81.72
2019-01-18T04:42:58.952Z,81.18
2019-01-18T04:45:30.685Z,81.66
2019-01-18T04:47:59.737Z,81.96
2019-01-18T04:50:29.647Z,82.58
2019-01-18T04:52:58.879Z,82.53
2019-01-18T04:55:35.764Z,82.67
2019-01-18T04:58:05.215Z,82.64
2019-01-18T05:00:41.043Z,83.54
2019-01-18T05:03:09.012Z,83.12
2019-01-18T05:05:38.220Z,83.45
2019-01-18T05:08:08.573Z,83.41
2019-01-18T05:10:38.060Z,83.11
2019-01-18T05:13:08.089Z,82.66
2019-01-18T05:15:37.653Z,83.02
2019-01-18T05:18:07.277Z,82.75
2019-01-18T05:20:36.487Z,82.06
2019-01-18T05:23:06.198Z,82.34
2019-01-18T05:25:36.305Z,81.67
2019-01-18T05:28:05.821Z,81.67
2019-01-18T05:30:35.023Z,82.15
2019-01-18T05:33:05.638Z,81.81
2019-01-18T05:35:35.194Z,81.11
2019-01-18T05:38:04.869Z,81.09
2019-01-18T05:40:34.951Z,80.80
2019-01-18T05:43:04.505Z,80.18
2019-01-18T05:45:33.707Z,80.99
2019-01-18T05:48:02.943Z,80.05
2019-01-18T05:50:32.152Z,80.10
2019-01-18T05:53:05.212Z,78.46
2019-01-18T05:55:35.034Z,78.12
2019-01-18T05:58:05.646Z,77.99
2019-01-18T06:01:02.835Z,77.89
2019-01-18T06:03:32.088Z,77.53
2019-01-18T06:06:01.288Z,78.21
2019-01-18T06:08:30.518Z,78.21
2019-01-18T06:10:59.725Z,77.72
2019-01-18T06:13:28.963Z,77.78
2019-01-18T06:15:58.188Z,77.26
2019-01-18T06:18:27.439Z,77.64
2019-01-18T06:20:56.652Z,77.80
2019-01-18T06:23:25.889Z,75.74
2019-01-18T06:25:55.102Z,75.88
2019-01-18T06:28:24.341Z,75.26
2019-01-18T06:30:53.532Z,74.74
2019-01-18T06:33:22.767Z,75.58
2019-01-18T06:35:51.973Z,75.11
2019-01-18T06:38:21.213Z,75.58
2019-01-18T06:40:51.193Z,75.35
2019-01-18T06:43:20.421Z,75.19
2019-01-18T06:45:49.847Z,75.82
2019-01-18T06:48:21.952Z,75.76
2019-01-18T06:50:51.258Z,75.52
2019-01-18T06:53:20.707Z,75.10
2019-01-18T06:55:49.936Z,75.37
2019-01-18T06:58:19.153Z,75.21
2019-01-18T07:00:48.562Z,75.38
2019-01-18T07:03:18.077Z,75.97
2019-01-18T07:05:47.309Z,75.67
2019-01-18T07:08:16.515Z,75.31
2019-01-18T07:10:45.754Z,76.30
2019-01-18T07:13:14.993Z,75.68
2019-01-18T07:15:44.547Z,75.79
2019-01-18T07:18:13.752Z,76.42
2019-01-18T07:20:42.999Z,75.97
2019-01-18T07:23:12.245Z,76.80
2019-01-18T07:25:41.471Z,76.39
2019-01-18T07:28:11.110Z,76.66
2019-01-18T07:30:44.520Z,75.46
2019-01-18T07:33:15.937Z,75.26
2019-01-18T07:35:45.189Z,75.78
2019-01-18T07:38:15.368Z,74.42
2019-01-18T07:40:46.585Z,74.59
2019-01-18T07:43:15.826Z,74.17
2019-01-18T07:45:45.647Z,73.96
2019-01-18T07:48:15.782Z,74.10
2019-01-18T07:50:45.017Z,73.62
2019-01-18T07:53:14.245Z,74.17
2019-01-18T07:55:43.478Z,73.96
2019-01-18T07:58:14.713Z,74.07
2019-01-18T08:00:43.940Z,74.03
2019-01-18T08:03:13.146Z,74.21
2019-01-18T08:05:42.389Z,73.80
2019-01-18T08:08:11.785Z,73.70
2019-01-18T08:10:41.037Z,73.22
2019-01-18T08:13:12.576Z,72.64
2019-01-18T08:15:45.801Z,72.92
2019-01-18T08:18:15.278Z,73.20
2019-01-18T08:20:46.948Z,72.11
2019-01-18T08:23:15.978Z,71.74
2019-01-18T08:25:47.321Z,72.24
2019-01-18T08:28:16.530Z,73.02
2019-01-18T08:30:46.967Z,72.03
2019-01-18T08:33:18.016Z,71.96
2019-01-18T08:35:47.653Z,72.48
2019-01-18T08:38:22.745Z,72.56
2019-01-18T08:40:51.973Z,72.54
2019-01-18T08:43:22.346Z,72.31
2019-01-18T08:45:56.153Z,72.73
2019-01-18T08:48:26.816Z,71.44
2019-01-18T08:50:56.082Z,72.00
2019-01-18T08:53:25.884Z,71.54
2019-01-18T08:55:56.503Z,72.24
2019-01-18T08:58:26.018Z,71.68
2019-01-18T09:00:55.241Z,71.29
2019-01-18T09:03:25.756Z,70.71
2019-01-18T09:05:55.001Z,69.20
2019-01-18T09:08:24.749Z,68.21
2019-01-18T09:10:55.088Z,66.61
2019-01-18T09:13:24.752Z,67.15
2019-01-18T09:15:54.228Z,65.43
2019-01-18T09:18:23.469Z,64.51
2019-01-18T09:20:56.435Z,64.79
2019-01-18T09:23:25.676Z,65.84
2019-01-18T09:25:55.212Z,67.03
2019-01-18T09:28:25.940Z,67.33
2019-01-18T09:30:55.391Z,68.63
2019-01-18T09:33:24.642Z,69.67
2019-01-18T09:35:54.487Z,69.17
2019-01-18T09:38:23.773Z,69.14
2019-01-18T09:40:54.456Z,68.64
2019-01-18T09:43:25.047Z,67.72
2019-01-18T09:45:54.671Z,69.52
2019-01-18T09:48:25.177Z,70.18
2019-01-18T09:50:56.023Z,69.56
2019-01-18T09:53:25.446Z,68.84
2019-01-18T09:55:54.724Z,68.96
2019-01-18T09:58:24.895Z,68.94
2019-01-18T10:00:54.789Z,68.99
2019-01-18T10:03:24.169Z,69.07
2019-01-18T10:05:54.531Z,69.57
2019-01-18T10:08:23.794Z,69.09
2019-01-18T10:10:53.355Z,70.43
2019-01-18T10:13:23.590Z,71.32
2019-01-18T10:15:53.846Z,69.97
2019-01-18T10:18:24.129Z,69.77
2019-01-18T10:20:53.508Z,69.67
2019-01-18T10:23:22.803Z,69.90
2019-01-18T10:25:52.383Z,69.12
2019-01-18T10:28:23.169Z,69.24
2019-01-18T10:30:55.859Z,69.19
2019-01-18T10:33:25.485Z,70.58
2019-01-18T10:35:54.700Z,70.61
2019-01-18T10:38:24.647Z,70.74
2019-01-18T10:40:53.920Z,70.92
2019-01-18T10:43:23.217Z,72.20
2019-01-18T10:45:52.801Z,71.72
2019-01-18T10:48:23.116Z,71.64
2019-01-18T10:50:54.653Z,71.93
2019-01-18T10:53:27.414Z,71.63
2019-01-18T10:55:56.963Z,70.01
2019-01-18T10:58:26.569Z,71.51
2019-01-18T11:00:56.367Z,71.50
2019-01-18T11:03:25.886Z,72.55
2019-01-18T11:05:55.093Z,71.17
2019-01-18T11:08:25.069Z,71.89
2019-01-18T11:10:54.127Z,71.08
2019-01-18T11:13:24.764Z,71.00
2019-01-18T11:15:54.393Z,70.65
2019-01-18T11:18:23.952Z,69.64
2019-01-18T11:21:00.269Z,67.40
2019-01-18T11:23:31.802Z,67.02
2019-01-18T11:26:02.206Z,64.40
2019-01-18T11:28:32.987Z,66.92
2019-01-18T11:31:02.266Z,67.56
2019-01-18T11:33:31.517Z,68.19
2019-01-18T11:36:01.515Z,68.76
2019-01-18T11:38:32.251Z,68.17
2019-01-18T11:41:02.509Z,66.14
2019-01-18T11:43:32.024Z,65.10
2019-01-18T11:46:03.631Z,66.03
2019-01-18T11:48:32.872Z,65.52
2019-01-18T11:51:02.163Z,64.45
2019-01-18T11:53:31.470Z,64.53
2019-01-18T11:56:00.761Z,65.75
2019-01-18T11:58:30.439Z,65.32
2019-01-18T12:00:59.854Z,64.65
2019-01-18T12:03:29.395Z,66.35
2019-01-18T12:05:58.625Z,65.94
2019-01-18T12:08:27.827Z,66.28
2019-01-18T12:10:59.142Z,65.82
2019-01-18T12:13:28.635Z,64.51
2019-01-18T12:16:00.329Z,64.53
2019-01-18T12:18:30.564Z,65.70
2019-01-18T12:21:03.345Z,63.91
2019-01-18T12:23:33.292Z,63.53
2019-01-18T12:26:04.533Z,64.50
2019-01-18T12:28:36.742Z,64.82
2019-01-18T12:31:06.023Z,63.85
2019-01-18T12:33:35.265Z,64.33
2019-01-18T12:36:05.021Z,63.14
2019-01-18T12:38:34.271Z,63.39
2019-01-18T12:41:05.597Z,63.10
2019-01-18T12:43:34.915Z,61.87
2019-01-18T12:46:04.536Z,60.63
2019-01-18T12:48:35.717Z,60.02
2019-01-18T12:51:08.833Z,60.62
2019-01-18T12:53:38.141Z,62.05
2019-01-18T12:56:08.896Z,61.20
2019-01-18T12:58:38.565Z,60.10
2019-01-18T13:01:07.863Z,60.27
2019-01-18T13:03:37.126Z,59.13
2019-01-18T13:06:09.003Z,58.71
2019-01-18T13:08:40.474Z,56.98
2019-01-18T13:11:12.165Z,58.21
2019-01-18T13:13:41.391Z,58.66
2019-01-18T13:16:28.922Z,60.88
2019-01-18T13:19:04.586Z,61.09
2019-01-18T13:21:34.949Z,60.84
2019-01-18T13:24:04.292Z,61.31
2019-01-18T13:26:33.913Z,61.25
2019-01-18T13:29:13.598Z,61.28
2019-01-18T13:31:50.510Z,60.78
2019-01-18T13:34:23.478Z,60.62
2019-01-18T13:36:54.094Z,62.30
2019-01-18T13:39:25.530Z,62.53
2019-01-18T13:41:54.810Z,64.00
2019-01-18T13:44:24.057Z,63.19
2019-01-18T13:46:55.427Z,62.01
2019-01-18T13:49:24.989Z,61.12
2019-01-18T13:51:57.242Z,62.27
2019-01-18T13:54:26.449Z,62.86
2019-01-18T13:56:56.652Z,63.47
2019-01-18T13:59:25.863Z,64.07
2019-01-18T14:01:55.111Z,63.04
2019-01-18T14:04:24.670Z,61.46
2019-01-18T14:06:54.272Z,57.44
2019-01-18T14:09:23.505Z,55.10
2019-01-18T14:11:55.863Z,50.52
2019-01-18T14:14:24.121Z,49.09
2019-01-18T14:16:54.426Z,50.52
2019-01-18T14:19:23.654Z,52.57
2019-01-18T14:21:53.705Z,52.71
2019-01-18T14:24:27.269Z,51.22
2019-01-18T14:26:56.805Z,50.02
2019-01-18T14:29:26.040Z,49.07
2019-01-18T14:32:01.763Z,48.31
2019-01-18T14:34:35.021Z,47.43
2019-01-18T14:37:04.233Z,49.35
2019-01-18T14:39:33.321Z,47.08
2019-01-18T14:42:02.551Z,45.86
2019-01-18T14:44:31.894Z,45.73
2019-01-18T14:47:02.360Z,45.35
2019-01-18T14:49:32.702Z,44.35
2019-01-18T14:52:02.765Z,43.61
2019-01-18T14:54:32.313Z,43.64
2019-01-18T14:57:01.520Z,43.60
2019-01-18T14:59:30.809Z,43.50
2019-01-18T15:02:01.754Z,43.51
2019-01-18T15:04:30.988Z,43.54
2019-01-18T15:07:03.001Z,44.25
2019-01-18T15:09:33.371Z,45.67
2019-01-18T15:12:02.896Z,46.55
2019-01-18T15:14:32.146Z,47.98
2019-01-18T15:17:04.480Z,49.53
2019-01-18T15:19:33.762Z,50.96
2019-01-18T15:22:03.315Z,52.97
2019-01-18T15:24:36.323Z,54.08
2019-01-18T15:27:05.981Z,55.08
2019-01-18T15:29:39.394Z,55.57
2019-01-18T15:32:10.316Z,56.60
2019-01-18T15:34:39.389Z,58.30
2019-01-18T15:37:08.604Z,59.15
2019-01-18T15:39:40.036Z,61.37
2019-01-18T15:42:10.377Z,61.53
2019-01-18T15:44:42.932Z,61.51
2019-01-18T15:47:14.420Z,62.70
2019-01-18T15:49:43.959Z,62.90
2019-01-18T15:52:13.374Z,63.59
2019-01-18T15:54:42.624Z,63.16
2019-01-18T15:57:15.690Z,63.49
2019-01-18T15:59:45.754Z,63.95
2019-01-18T16:02:14.966Z,64.04
2019-01-18T16:04:45.158Z,62.43
2019-01-18T16:07:14.406Z,62.17
2019-01-18T16:09:44.531Z,62.71
2019-01-18T16:12:16.040Z,62.96
2019-01-18T16:14:47.288Z,63.82
2019-01-18T16:17:23.408Z,63.32
2019-01-18T16:19:55.919Z,64.03
2019-01-18T16:22:27.239Z,66.17
2019-01-18T16:24:57.911Z,66.21
2019-01-18T16:27:30.793Z,66.21
2019-01-18T16:30:00.895Z,67.24
2019-01-18T16:32:30.445Z,67.16
2019-01-18T16:35:01.596Z,66.06
2019-01-18T16:37:30.796Z,65.61
2019-01-18T16:40:00.215Z,66.50
2019-01-18T16:42:29.430Z,66.42
2019-01-18T16:44:58.714Z,66.33
2019-01-18T16:47:27.911Z,65.90
2019-01-18T16:49:57.442Z,65.86
2019-01-18T16:52:26.687Z,66.58
2019-01-18T16:54:56.246Z,67.19
2019-01-18T16:57:26.662Z,67.35
2019-01-18T16:59:57.030Z,67.37
2019-01-18T17:02:27.247Z,67.64
2019-01-18T17:04:56.467Z,67.96
2019-01-18T17:07:25.707Z,68.53
2019-01-18T17:09:56.331Z,69.35
2019-01-18T17:12:25.695Z,69.53
2019-01-18T17:14:55.127Z,69.76
2019-01-18T17:17:24.185Z,70.36
2019-01-18T17:19:54.357Z,71.22
2019-01-18T17:22:23.649Z,71.91
2019-01-18T17:24:53.563Z,72.29
2019-01-18T17:27:22.814Z,72.58
2019-01-18T17:29:52.055Z,72.80
2019-01-18T17:32:21.588Z,73.14
2019-01-18T17:34:50.839Z,73.42
2019-01-18T17:37:27.745Z,73.54
2019-01-18T17:40:29.923Z,73.71
2019-01-18T17:43:31.186Z,73.84
2019-01-18T17:46:08.757Z,73.86
2019-01-18T17:49:14.076Z,73.81
2019-01-18T17:52:05.320Z,74.23
2019-01-18T17:54:53.120Z,74.54
2019-01-18T17:58:18.480Z,74.53
2019-01-18T18:01:21.784Z,74.60
2019-01-18T18:04:34.664Z,75.21
2019-01-18T18:07:31.840Z,75.26
2019-01-18T18:10:17.092Z,75.32
2019-01-18T18:13:28.264Z,75.53
2019-01-18T18:16:29.922Z,75.67
2019-01-18T18:19:40.533Z,75.94
2019-01-18T18:22:59.824Z,76.11
2019-01-18T18:26:16.141Z,76.95
2019-01-18T18:29:18.334Z,78.00
2019-01-18T18:32:37.663Z,77.93
2019-01-18T18:35:52.553Z,77.88
2019-01-18T18:39:01.672Z,77.54
2019-01-18T18:42:28.467Z,77.69
2019-01-18T18:45:34.629Z,77.81
2019-01-18T18:49:00.269Z,77.61
2019-01-18T18:52:37.855Z,77.70
2019-01-18T18:55:30.291Z,77.71
2019-01-18T18:58:31.194Z,77.35
2019-01-18T19:01:48.835Z,77.33
2019-01-18T19:05:02.227Z,77.43
2019-01-18T19:08:14.737Z,77.62
2019-01-18T19:11:25.315Z,77.76
2019-01-18T19:14:49.523Z,77.80
2019-01-18T19:17:51.123Z,77.87
2019-01-18T19:20:39.082Z,78.06
2019-01-18T19:23:50.738Z,78.31
2019-01-18T19:26:51.149Z,78.35
2019-01-18T19:30:16.749Z,78.36
2019-01-18T19:33:51.299Z,78.51
2019-01-18T19:36:57.786Z,78.54
2019-01-18T19:40:04.858Z,78.56
2019-01-18T19:43:14.869Z,78.91
2019-01-18T19:46:23.221Z,79.22
2019-01-18T19:49:28.394Z,79.32
2019-01-18T19:52:13.007Z,79.49
2019-01-18T19:54:53.450Z,79.61
2019-01-18T19:58:05.239Z,79.74
2019-01-18T20:01:00.052Z,79.72
2019-01-18T20:04:15.418Z,79.67
2019-01-18T20:07:15.571Z,79.59
2019-01-18T20:10:16.455Z,79.72
2019-01-18T20:13:29.583Z,79.54
2019-01-18T20:16:30.437Z,79.47
2019-01-18T20:19:22.166Z,79.33
2019-01-18T20:22:18.785Z,79.03
2019-01-18T20:25:37.267Z,78.75
2019-01-18T20:28:45.232Z,78.42
2019-01-18T20:31:48.131Z,78.45
2019-01-18T20:35:10.757Z,78.47
2019-01-18T20:37:55.950Z,78.55
2019-01-18T20:40:56.508Z,78.71
2019-01-18T20:44:04.158Z,78.51
2019-01-18T20:47:24.145Z,78.41
2019-01-18T20:50:32.689Z,78.22
2019-01-18T20:53:55.170Z,78.02
2019-01-18T20:56:52.647Z,77.91
2019-01-18T20:59:55.900Z,77.76
2019-01-18T21:02:52.108Z,77.72
2019-01-18T21:05:56.561Z,77.79
2019-01-18T21:08:57.940Z,77.85
2019-01-18T21:11:55.653Z,77.76
2019-01-18T21:14:55.404Z,77.79
2019-01-18T21:18:07.753Z,78.05
2019-01-18T21:21:15.231Z,78.26
2019-01-18T21:24:50.403Z,78.59
2019-01-18T21:28:15.989Z,78.55
2019-01-18T21:31:41.892Z,79.77
2019-01-18T21:34:48.239Z,80.65
2019-01-18T21:38:07.077Z,80.66
2019-01-18T21:40:59.881Z,80.61
2019-01-18T21:44:15.650Z,80.39
2019-01-18T21:47:32.121Z,79.52
2019-01-18T21:50:32.753Z,78.96
2019-01-18T21:53:48.631Z,78.49
2019-01-18T21:56:48.566Z,78.87
2019-01-18T21:59:48.944Z,78.97
2019-01-18T22:03:01.218Z,79.05
2019-01-18T22:05:55.962Z,79.05
2019-01-18T22:09:05.198Z,79.03
2019-01-18T22:12:27.455Z,78.58
2019-01-18T22:15:30.232Z,78.88
2019-01-18T22:18:46.587Z,79.55
2019-01-18T22:21:53.932Z,79.83
2019-01-18T22:25:19.362Z,80.07
2019-01-18T22:28:30.617Z,80.47
2019-01-18T22:31:36.404Z,80.89
2019-01-18T22:34:12.551Z,81.00
2019-01-18T22:36:59.434Z,80.98
2019-01-18T22:40:01.201Z,81.04
2019-01-18T22:42:57.199Z,81.20
2019-01-18T22:45:47.407Z,81.07
2019-01-18T22:48:40.792Z,80.80
2019-01-18T22:51:49.049Z,81.00
2019-01-18T22:54:45.450Z,81.21
2019-01-18T22:57:39.887Z,80.80
2019-01-18T23:01:05.877Z,80.39
2019-01-18T23:04:21.362Z,80.47
2019-01-18T23:07:50.088Z,80.23
2019-01-18T23:10:31.704Z,80.22
2019-01-18T23:13:39.184Z,80.41
2019-01-18T23:16:25.263Z,80.87
2019-01-18T23:19:20.025Z,81.20
2019-01-18T23:22:28.142Z,81.09
2019-01-18T23:25:18.918Z,80.85
2019-01-18T23:28:29.257Z,80.48
2019-01-18T23:31:06.967Z,80.46
2019-01-18T23:34:14.041Z,80.44
2019-01-18T23:37:13.531Z,80.48
2019-01-18T23:40:36.020Z,80.57
2019-01-18T23:43:52.257Z,80.86
2019-01-18T23:46:54.725Z,81.18
2019-01-18T23:49:59.721Z,81.35
2019-01-18T23:52:54.528Z,81.79
2019-01-18T23:55:49.621Z,82.20
2019-01-18T23:58:49.652Z,82.36
